sensor_id;sensor_type;location;lat;lon;timestamp;P1;durP1;ratioP1;P2;durP2;ratioP2
76693;SDS011;65625;52.136;5.424;2023-04-15T00:00:56;9.05;;;3.80;;
76693;SDS011;65625;52.136;5.424;2023-04-15T00:03:24;7.68;;;3.30;;
76693;SDS011;65625;52.136;5.424;2023-04-15T00:05:51;8.65;;;3.45;;
76693;SDS011;65625;52.136;5.424;2023-04-15T00:08:17;8.30;;;3.42;;
76693;SDS011;65625;52.136;5.424;2023-04-15T00:10:45;9.95;;;3.78;;
76693;SDS011;65625;52.136;5.424;2023-04-15T00:13:12;9.25;;;3.97;;
76693;SDS011;65625;52.136;5.424;2023-04-15T00:15:38;7.03;;;3.42;;
76693;SDS011;65625;52.136;5.424;2023-04-15T00:18:05;10.48;;;4.40;;
76693;SDS011;65625;52.136;5.424;2023-04-15T00:20:33;7.68;;;3.80;;
76693;SDS011;65625;52.136;5.424;2023-04-15T00:23:00;6.90;;;3.50;;
76693;SDS011;65625;52.136;5.424;2023-04-15T00:25:27;6.57;;;3.58;;
76693;SDS011;65625;52.136;5.424;2023-04-15T00:27:54;7.88;;;3.70;;
76693;SDS011;65625;52.136;5.424;2023-04-15T00:30:21;7.28;;;3.40;;
76693;SDS011;65625;52.136;5.424;2023-04-15T00:32:49;7.35;;;4.22;;
76693;SDS011;65625;52.136;5.424;2023-04-15T00:35:19;12.10;;;3.70;;
76693;SDS011;65625;52.136;5.424;2023-04-15T00:37:47;7.82;;;3.92;;
76693;SDS011;65625;52.136;5.424;2023-04-15T00:40:13;9.05;;;4.10;;
76693;SDS011;65625;52.136;5.424;2023-04-15T00:42:43;8.50;;;3.65;;
76693;SDS011;65625;52.136;5.424;2023-04-15T00:45:10;7.68;;;4.07;;
76693;SDS011;65625;52.136;5.424;2023-04-15T00:47:37;10.80;;;4.25;;
76693;SDS011;65625;52.136;5.424;2023-04-15T00:50:06;9.10;;;4.32;;
76693;SDS011;65625;52.136;5.424;2023-04-15T00:52:33;8.55;;;3.97;;
76693;SDS011;65625;52.136;5.424;2023-04-15T00:55:00;7.68;;;4.25;;
76693;SDS011;65625;52.136;5.424;2023-04-15T00:57:28;6.82;;;4.22;;
76693;SDS011;65625;52.136;5.424;2023-04-15T00:59:55;7.88;;;3.83;;
76693;SDS011;65625;52.136;5.424;2023-04-15T01:02:22;7.90;;;3.67;;
76693;SDS011;65625;52.136;5.424;2023-04-15T01:04:49;6.53;;;4.13;;
76693;SDS011;65625;52.136;5.424;2023-04-15T01:07:16;8.77;;;4.65;;
76693;SDS011;65625;52.136;5.424;2023-04-15T01:09:43;7.22;;;3.70;;
76693;SDS011;65625;52.136;5.424;2023-04-15T01:12:11;7.97;;;4.35;;
76693;SDS011;65625;52.136;5.424;2023-04-15T01:14:39;8.05;;;4.22;;
76693;SDS011;65625;52.136;5.424;2023-04-15T01:17:06;7.80;;;3.60;;
76693;SDS011;65625;52.136;5.424;2023-04-15T01:19:32;6.85;;;4.10;;
76693;SDS011;65625;52.136;5.424;2023-04-15T01:21:59;7.70;;;4.18;;
76693;SDS011;65625;52.136;5.424;2023-04-15T01:24:25;12.13;;;4.32;;
76693;SDS011;65625;52.136;5.424;2023-04-15T01:26:53;5.90;;;3.97;;
76693;SDS011;65625;52.136;5.424;2023-04-15T01:29:22;9.35;;;3.95;;
76693;SDS011;65625;52.136;5.424;2023-04-15T01:31:50;10.70;;;4.28;;
76693;SDS011;65625;52.136;5.424;2023-04-15T01:34:17;7.50;;;3.83;;
76693;SDS011;65625;52.136;5.424;2023-04-15T01:36:44;9.20;;;3.90;;
76693;SDS011;65625;52.136;5.424;2023-04-15T01:39:12;6.55;;;3.60;;
76693;SDS011;65625;52.136;5.424;2023-04-15T01:41:39;7.90;;;3.65;;
76693;SDS011;65625;52.136;5.424;2023-04-15T01:44:07;10.15;;;4.10;;
76693;SDS011;65625;52.136;5.424;2023-04-15T01:46:34;7.85;;;3.60;;
76693;SDS011;65625;52.136;5.424;2023-04-15T01:49:02;8.65;;;4.30;;
76693;SDS011;65625;52.136;5.424;2023-04-15T01:51:30;7.85;;;3.80;;
76693;SDS011;65625;52.136;5.424;2023-04-15T01:53:57;8.30;;;3.67;;
76693;SDS011;65625;52.136;5.424;2023-04-15T01:56:24;6.53;;;3.40;;
76693;SDS011;65625;52.136;5.424;2023-04-15T01:58:51;6.07;;;3.72;;
76693;SDS011;65625;52.136;5.424;2023-04-15T02:01:18;11.85;;;3.95;;
76693;SDS011;65625;52.136;5.424;2023-04-15T02:03:45;7.60;;;3.83;;
76693;SDS011;65625;52.136;5.424;2023-04-15T02:06:13;8.32;;;3.72;;
76693;SDS011;65625;52.136;5.424;2023-04-15T02:08:40;9.55;;;4.18;;
76693;SDS011;65625;52.136;5.424;2023-04-15T02:11:07;8.25;;;4.20;;
76693;SDS011;65625;52.136;5.424;2023-04-15T02:13:33;8.38;;;3.72;;
76693;SDS011;65625;52.136;5.424;2023-04-15T02:16:00;6.78;;;3.92;;
76693;SDS011;65625;52.136;5.424;2023-04-15T02:18:26;10.85;;;4.32;;
76693;SDS011;65625;52.136;5.424;2023-04-15T02:20:53;7.90;;;3.78;;
76693;SDS011;65625;52.136;5.424;2023-04-15T02:23:21;10.23;;;4.32;;
76693;SDS011;65625;52.136;5.424;2023-04-15T02:25:47;8.07;;;3.63;;
76693;SDS011;65625;52.136;5.424;2023-04-15T02:28:19;7.65;;;3.83;;
76693;SDS011;65625;52.136;5.424;2023-04-15T02:30:47;10.30;;;3.95;;
76693;SDS011;65625;52.136;5.424;2023-04-15T02:33:18;9.50;;;3.75;;
76693;SDS011;65625;52.136;5.424;2023-04-15T02:35:44;7.10;;;3.35;;
76693;SDS011;65625;52.136;5.424;2023-04-15T02:38:11;7.85;;;4.00;;
76693;SDS011;65625;52.136;5.424;2023-04-15T02:40:39;8.15;;;3.70;;
76693;SDS011;65625;52.136;5.424;2023-04-15T02:43:06;6.03;;;3.50;;
76693;SDS011;65625;52.136;5.424;2023-04-15T02:45:33;7.40;;;3.60;;
76693;SDS011;65625;52.136;5.424;2023-04-15T02:48:01;7.78;;;3.60;;
76693;SDS011;65625;52.136;5.424;2023-04-15T02:50:31;8.25;;;3.50;;
76693;SDS011;65625;52.136;5.424;2023-04-15T02:52:58;11.65;;;4.10;;
76693;SDS011;65625;52.136;5.424;2023-04-15T02:55:27;8.65;;;3.97;;
76693;SDS011;65625;52.136;5.424;2023-04-15T02:57:54;7.40;;;3.67;;
76693;SDS011;65625;52.136;5.424;2023-04-15T03:00:21;7.55;;;3.63;;
76693;SDS011;65625;52.136;5.424;2023-04-15T03:02:50;6.00;;;3.67;;
76693;SDS011;65625;52.136;5.424;2023-04-15T03:05:21;8.57;;;3.95;;
76693;SDS011;65625;52.136;5.424;2023-04-15T03:07:51;6.47;;;3.60;;
76693;SDS011;65625;52.136;5.424;2023-04-15T03:10:19;8.57;;;3.53;;
76693;SDS011;65625;52.136;5.424;2023-04-15T03:12:46;8.23;;;3.85;;
76693;SDS011;65625;52.136;5.424;2023-04-15T03:15:18;7.28;;;3.78;;
76693;SDS011;65625;52.136;5.424;2023-04-15T03:17:47;5.88;;;3.38;;
76693;SDS011;65625;52.136;5.424;2023-04-15T03:20:15;6.55;;;3.47;;
76693;SDS011;65625;52.136;5.424;2023-04-15T03:22:42;7.70;;;3.95;;
76693;SDS011;65625;52.136;5.424;2023-04-15T03:25:08;9.30;;;3.72;;
76693;SDS011;65625;52.136;5.424;2023-04-15T03:27:36;7.63;;;3.90;;
76693;SDS011;65625;52.136;5.424;2023-04-15T03:30:03;7.32;;;3.95;;
76693;SDS011;65625;52.136;5.424;2023-04-15T03:32:33;9.07;;;3.78;;
76693;SDS011;65625;52.136;5.424;2023-04-15T03:35:00;9.50;;;4.18;;
76693;SDS011;65625;52.136;5.424;2023-04-15T03:37:27;9.45;;;3.92;;
76693;SDS011;65625;52.136;5.424;2023-04-15T03:39:53;9.32;;;4.35;;
76693;SDS011;65625;52.136;5.424;2023-04-15T03:42:20;8.50;;;3.53;;
76693;SDS011;65625;52.136;5.424;2023-04-15T03:44:46;8.35;;;4.32;;
76693;SDS011;65625;52.136;5.424;2023-04-15T03:47:13;6.20;;;3.95;;
76693;SDS011;65625;52.136;5.424;2023-04-15T03:49:39;7.40;;;3.97;;
76693;SDS011;65625;52.136;5.424;2023-04-15T03:52:06;8.52;;;3.88;;
76693;SDS011;65625;52.136;5.424;2023-04-15T03:54:33;11.90;;;4.43;;
76693;SDS011;65625;52.136;5.424;2023-04-15T03:56:59;9.45;;;3.92;;
76693;SDS011;65625;52.136;5.424;2023-04-15T03:59:26;7.65;;;4.50;;
76693;SDS011;65625;52.136;5.424;2023-04-15T04:01:52;10.35;;;4.10;;
76693;SDS011;65625;52.136;5.424;2023-04-15T04:04:19;10.50;;;4.05;;
76693;SDS011;65625;52.136;5.424;2023-04-15T04:06:46;11.75;;;4.55;;
76693;SDS011;65625;52.136;5.424;2023-04-15T04:09:12;9.63;;;4.13;;
76693;SDS011;65625;52.136;5.424;2023-04-15T04:11:39;9.98;;;4.30;;
76693;SDS011;65625;52.136;5.424;2023-04-15T04:14:05;8.27;;;4.47;;
76693;SDS011;65625;52.136;5.424;2023-04-15T04:16:32;6.97;;;3.92;;
76693;SDS011;65625;52.136;5.424;2023-04-15T04:18:58;6.80;;;3.55;;
76693;SDS011;65625;52.136;5.424;2023-04-15T04:21:25;6.38;;;3.72;;
76693;SDS011;65625;52.136;5.424;2023-04-15T04:23:51;9.20;;;3.53;;
76693;SDS011;65625;52.136;5.424;2023-04-15T04:26:18;11.63;;;4.60;;
76693;SDS011;65625;52.136;5.424;2023-04-15T04:28:45;7.70;;;4.45;;
76693;SDS011;65625;52.136;5.424;2023-04-15T04:31:11;8.18;;;4.57;;
76693;SDS011;65625;52.136;5.424;2023-04-15T04:33:38;7.45;;;3.95;;
76693;SDS011;65625;52.136;5.424;2023-04-15T04:36:04;8.95;;;4.68;;
76693;SDS011;65625;52.136;5.424;2023-04-15T04:38:31;9.45;;;4.57;;
76693;SDS011;65625;52.136;5.424;2023-04-15T04:40:58;9.80;;;4.43;;
76693;SDS011;65625;52.136;5.424;2023-04-15T04:43:24;9.68;;;3.97;;
76693;SDS011;65625;52.136;5.424;2023-04-15T04:45:51;9.57;;;4.13;;
76693;SDS011;65625;52.136;5.424;2023-04-15T04:48:17;7.72;;;4.03;;
76693;SDS011;65625;52.136;5.424;2023-04-15T04:50:44;10.45;;;4.38;;
76693;SDS011;65625;52.136;5.424;2023-04-15T04:53:12;10.25;;;4.53;;
76693;SDS011;65625;52.136;5.424;2023-04-15T04:55:38;9.40;;;4.55;;
76693;SDS011;65625;52.136;5.424;2023-04-15T04:58:05;8.55;;;4.68;;
76693;SDS011;65625;52.136;5.424;2023-04-15T05:00:31;9.35;;;4.75;;
76693;SDS011;65625;52.136;5.424;2023-04-15T05:02:58;10.50;;;5.20;;
76693;SDS011;65625;52.136;5.424;2023-04-15T05:05:26;8.98;;;4.72;;
76693;SDS011;65625;52.136;5.424;2023-04-15T05:07:52;8.10;;;4.22;;
76693;SDS011;65625;52.136;5.424;2023-04-15T05:10:18;10.57;;;5.15;;
76693;SDS011;65625;52.136;5.424;2023-04-15T05:12:45;10.43;;;4.28;;
76693;SDS011;65625;52.136;5.424;2023-04-15T05:15:12;12.10;;;4.65;;
76693;SDS011;65625;52.136;5.424;2023-04-15T05:17:38;8.93;;;4.35;;
76693;SDS011;65625;52.136;5.424;2023-04-15T05:20:05;10.40;;;4.70;;
76693;SDS011;65625;52.136;5.424;2023-04-15T05:22:32;11.15;;;4.78;;
76693;SDS011;65625;52.136;5.424;2023-04-15T05:24:59;7.68;;;4.25;;
76693;SDS011;65625;52.136;5.424;2023-04-15T05:27:26;8.13;;;4.38;;
76693;SDS011;65625;52.136;5.424;2023-04-15T05:29:52;9.95;;;4.78;;
76693;SDS011;65625;52.136;5.424;2023-04-15T05:32:18;11.15;;;5.00;;
76693;SDS011;65625;52.136;5.424;2023-04-15T05:34:45;10.38;;;5.05;;
76693;SDS011;65625;52.136;5.424;2023-04-15T05:37:13;9.18;;;4.60;;
76693;SDS011;65625;52.136;5.424;2023-04-15T05:39:40;9.95;;;4.68;;
76693;SDS011;65625;52.136;5.424;2023-04-15T05:42:08;9.05;;;4.95;;
76693;SDS011;65625;52.136;5.424;2023-04-15T05:44:34;8.68;;;4.45;;
76693;SDS011;65625;52.136;5.424;2023-04-15T05:47:01;9.15;;;4.57;;
76693;SDS011;65625;52.136;5.424;2023-04-15T05:49:29;7.85;;;4.53;;
76693;SDS011;65625;52.136;5.424;2023-04-15T05:51:56;8.63;;;4.30;;
76693;SDS011;65625;52.136;5.424;2023-04-15T05:54:22;10.27;;;5.13;;
76693;SDS011;65625;52.136;5.424;2023-04-15T05:56:49;8.55;;;4.40;;
76693;SDS011;65625;52.136;5.424;2023-04-15T05:59:16;9.02;;;5.20;;
76693;SDS011;65625;52.136;5.424;2023-04-15T06:01:42;10.98;;;4.72;;
76693;SDS011;65625;52.136;5.424;2023-04-15T06:04:10;8.05;;;4.03;;
76693;SDS011;65625;52.136;5.424;2023-04-15T06:06:37;12.40;;;5.15;;
76693;SDS011;65625;52.136;5.424;2023-04-15T06:09:03;10.25;;;4.57;;
76693;SDS011;65625;52.136;5.424;2023-04-15T06:11:30;9.63;;;4.40;;
76693;SDS011;65625;52.136;5.424;2023-04-15T06:13:57;10.02;;;5.35;;
76693;SDS011;65625;52.136;5.424;2023-04-15T06:16:23;15.27;;;6.15;;
76693;SDS011;65625;52.136;5.424;2023-04-15T06:18:50;8.35;;;4.72;;
76693;SDS011;65625;52.136;5.424;2023-04-15T06:21:16;10.30;;;4.82;;
76693;SDS011;65625;52.136;5.424;2023-04-15T06:23:43;10.70;;;5.47;;
76693;SDS011;65625;52.136;5.424;2023-04-15T06:26:10;10.65;;;5.13;;
76693;SDS011;65625;52.136;5.424;2023-04-15T06:28:36;10.13;;;5.03;;
76693;SDS011;65625;52.136;5.424;2023-04-15T06:31:03;12.20;;;5.95;;
76693;SDS011;65625;52.136;5.424;2023-04-15T06:33:30;15.30;;;7.47;;
76693;SDS011;65625;52.136;5.424;2023-04-15T06:35:57;12.88;;;6.55;;
76693;SDS011;65625;52.136;5.424;2023-04-15T06:38:23;15.80;;;7.82;;
76693;SDS011;65625;52.136;5.424;2023-04-15T06:40:50;14.93;;;7.20;;
76693;SDS011;65625;52.136;5.424;2023-04-15T06:43:16;13.73;;;6.38;;
76693;SDS011;65625;52.136;5.424;2023-04-15T06:45:45;11.20;;;5.97;;
76693;SDS011;65625;52.136;5.424;2023-04-15T06:48:12;10.82;;;5.53;;
76693;SDS011;65625;52.136;5.424;2023-04-15T06:50:39;9.02;;;4.97;;
76693;SDS011;65625;52.136;5.424;2023-04-15T06:53:06;8.55;;;4.60;;
76693;SDS011;65625;52.136;5.424;2023-04-15T06:55:32;9.18;;;4.90;;
76693;SDS011;65625;52.136;5.424;2023-04-15T06:57:59;8.80;;;5.65;;
76693;SDS011;65625;52.136;5.424;2023-04-15T07:00:26;6.82;;;5.05;;
76693;SDS011;65625;52.136;5.424;2023-04-15T07:02:53;8.02;;;4.97;;
76693;SDS011;65625;52.136;5.424;2023-04-15T07:05:20;7.10;;;5.00;;
76693;SDS011;65625;52.136;5.424;2023-04-15T07:07:47;9.35;;;5.63;;
76693;SDS011;65625;52.136;5.424;2023-04-15T07:10:13;8.48;;;4.82;;
76693;SDS011;65625;52.136;5.424;2023-04-15T07:12:41;8.25;;;4.90;;
76693;SDS011;65625;52.136;5.424;2023-04-15T07:15:07;8.35;;;5.03;;
76693;SDS011;65625;52.136;5.424;2023-04-15T07:17:34;7.55;;;5.10;;
76693;SDS011;65625;52.136;5.424;2023-04-15T07:20:01;9.60;;;5.40;;
76693;SDS011;65625;52.136;5.424;2023-04-15T07:22:28;7.72;;;4.95;;
76693;SDS011;65625;52.136;5.424;2023-04-15T07:24:55;10.43;;;5.78;;
76693;SDS011;65625;52.136;5.424;2023-04-15T07:27:21;7.95;;;4.78;;
76693;SDS011;65625;52.136;5.424;2023-04-15T07:29:48;8.70;;;5.50;;
76693;SDS011;65625;52.136;5.424;2023-04-15T07:32:16;7.38;;;4.95;;
76693;SDS011;65625;52.136;5.424;2023-04-15T07:34:43;9.05;;;5.28;;
76693;SDS011;65625;52.136;5.424;2023-04-15T07:37:10;10.60;;;5.05;;
76693;SDS011;65625;52.136;5.424;2023-04-15T07:39:36;6.93;;;4.93;;
76693;SDS011;65625;52.136;5.424;2023-04-15T07:42:03;7.88;;;5.03;;
76693;SDS011;65625;52.136;5.424;2023-04-15T07:44:30;6.63;;;4.80;;
76693;SDS011;65625;52.136;5.424;2023-04-15T07:46:56;6.97;;;4.45;;
76693;SDS011;65625;52.136;5.424;2023-04-15T07:49:23;5.90;;;4.25;;
76693;SDS011;65625;52.136;5.424;2023-04-15T07:51:51;6.63;;;4.53;;
76693;SDS011;65625;52.136;5.424;2023-04-15T07:54:18;7.07;;;4.18;;
76693;SDS011;65625;52.136;5.424;2023-04-15T07:56:44;6.05;;;3.80;;
76693;SDS011;65625;52.136;5.424;2023-04-15T07:59:11;6.60;;;3.72;;
76693;SDS011;65625;52.136;5.424;2023-04-15T08:01:38;6.40;;;3.65;;
76693;SDS011;65625;52.136;5.424;2023-04-15T08:04:04;6.13;;;3.58;;
76693;SDS011;65625;52.136;5.424;2023-04-15T08:06:31;5.65;;;4.15;;
76693;SDS011;65625;52.136;5.424;2023-04-15T08:08:58;5.07;;;3.67;;
76693;SDS011;65625;52.136;5.424;2023-04-15T08:11:27;6.43;;;3.80;;
76693;SDS011;65625;52.136;5.424;2023-04-15T08:13:53;6.22;;;4.05;;
76693;SDS011;65625;52.136;5.424;2023-04-15T08:16:24;5.07;;;4.00;;
76693;SDS011;65625;52.136;5.424;2023-04-15T08:18:53;5.50;;;3.75;;
76693;SDS011;65625;52.136;5.424;2023-04-15T08:23:48;5.20;;;3.20;;
76693;SDS011;65625;52.136;5.424;2023-04-15T08:26:16;6.15;;;3.40;;
76693;SDS011;65625;52.136;5.424;2023-04-15T08:28:44;6.18;;;3.55;;
76693;SDS011;65625;52.136;5.424;2023-04-15T08:31:11;5.55;;;3.10;;
76693;SDS011;65625;52.136;5.424;2023-04-15T08:33:39;4.75;;;2.80;;
76693;SDS011;65625;52.136;5.424;2023-04-15T08:36:06;4.53;;;2.80;;
76693;SDS011;65625;52.136;5.424;2023-04-15T08:38:33;5.20;;;2.95;;
76693;SDS011;65625;52.136;5.424;2023-04-15T08:41:02;6.72;;;3.33;;
76693;SDS011;65625;52.136;5.424;2023-04-15T08:43:33;3.72;;;2.50;;
76693;SDS011;65625;52.136;5.424;2023-04-15T08:48:27;4.65;;;3.10;;
76693;SDS011;65625;52.136;5.424;2023-04-15T08:50:54;5.00;;;2.92;;
76693;SDS011;65625;52.136;5.424;2023-04-15T08:53:22;5.10;;;3.25;;
76693;SDS011;65625;52.136;5.424;2023-04-15T08:55:52;5.65;;;3.20;;
76693;SDS011;65625;52.136;5.424;2023-04-15T08:58:22;5.88;;;3.08;;
76693;SDS011;65625;52.136;5.424;2023-04-15T09:00:49;4.65;;;3.03;;
76693;SDS011;65625;52.136;5.424;2023-04-15T09:03:16;4.90;;;3.22;;
76693;SDS011;65625;52.136;5.424;2023-04-15T09:05:43;4.40;;;3.33;;
76693;SDS011;65625;52.136;5.424;2023-04-15T09:08:10;5.88;;;3.50;;
76693;SDS011;65625;52.136;5.424;2023-04-15T09:10:37;4.25;;;2.92;;
76693;SDS011;65625;52.136;5.424;2023-04-15T09:13:03;5.03;;;2.95;;
76693;SDS011;65625;52.136;5.424;2023-04-15T09:15:30;4.95;;;2.97;;
76693;SDS011;65625;52.136;5.424;2023-04-15T09:17:58;4.60;;;2.88;;
76693;SDS011;65625;52.136;5.424;2023-04-15T09:20:24;5.80;;;3.05;;
76693;SDS011;65625;52.136;5.424;2023-04-15T09:22:51;4.07;;;2.55;;
76693;SDS011;65625;52.136;5.424;2023-04-15T09:25:24;3.58;;;2.70;;
76693;SDS011;65625;52.136;5.424;2023-04-15T09:27:56;3.10;;;2.30;;
76693;SDS011;65625;52.136;5.424;2023-04-15T09:30:27;3.53;;;2.58;;
76693;SDS011;65625;52.136;5.424;2023-04-15T09:32:59;3.50;;;2.30;;
76693;SDS011;65625;52.136;5.424;2023-04-15T09:35:27;4.65;;;2.63;;
76693;SDS011;65625;52.136;5.424;2023-04-15T09:38:04;4.95;;;2.67;;
76693;SDS011;65625;52.136;5.424;2023-04-15T09:43:06;4.63;;;2.63;;
76693;SDS011;65625;52.136;5.424;2023-04-15T09:45:35;3.28;;;2.45;;
76693;SDS011;65625;52.136;5.424;2023-04-15T09:48:20;3.95;;;2.75;;
76693;SDS011;65625;52.136;5.424;2023-04-15T09:50:48;5.45;;;3.10;;
76693;SDS011;65625;52.136;5.424;2023-04-15T09:53:16;4.47;;;2.70;;
76693;SDS011;65625;52.136;5.424;2023-04-15T09:55:44;4.93;;;2.90;;
76693;SDS011;65625;52.136;5.424;2023-04-15T09:58:18;3.70;;;2.58;;
76693;SDS011;65625;52.136;5.424;2023-04-15T10:00:50;4.13;;;2.13;;
76693;SDS011;65625;52.136;5.424;2023-04-15T10:03:21;4.80;;;2.40;;
76693;SDS011;65625;52.136;5.424;2023-04-15T10:05:51;4.10;;;2.28;;
76693;SDS011;65625;52.136;5.424;2023-04-15T10:08:23;5.13;;;2.65;;
76693;SDS011;65625;52.136;5.424;2023-04-15T10:10:51;6.90;;;2.83;;
76693;SDS011;65625;52.136;5.424;2023-04-15T10:13:19;3.83;;;2.00;;
76693;SDS011;65625;52.136;5.424;2023-04-15T10:16:00;5.47;;;1.95;;
76693;SDS011;65625;52.136;5.424;2023-04-15T10:18:37;3.10;;;1.85;;
76693;SDS011;65625;52.136;5.424;2023-04-15T10:21:08;3.22;;;1.67;;
76693;SDS011;65625;52.136;5.424;2023-04-15T10:23:35;3.10;;;1.88;;
76693;SDS011;65625;52.136;5.424;2023-04-15T10:26:03;3.13;;;1.98;;
76693;SDS011;65625;52.136;5.424;2023-04-15T10:28:32;3.72;;;2.20;;
76693;SDS011;65625;52.136;5.424;2023-04-15T10:30:58;3.92;;;2.03;;
76693;SDS011;65625;52.136;5.424;2023-04-15T10:33:25;3.83;;;2.33;;
76693;SDS011;65625;52.136;5.424;2023-04-15T10:35:54;4.82;;;2.42;;
76693;SDS011;65625;52.136;5.424;2023-04-15T10:38:37;3.47;;;2.08;;
76693;SDS011;65625;52.136;5.424;2023-04-15T10:41:12;4.22;;;2.00;;
76693;SDS011;65625;52.136;5.424;2023-04-15T10:43:44;5.10;;;2.03;;
76693;SDS011;65625;52.136;5.424;2023-04-15T10:46:18;2.75;;;1.98;;
76693;SDS011;65625;52.136;5.424;2023-04-15T10:49:24;4.05;;;2.10;;
76693;SDS011;65625;52.136;5.424;2023-04-15T10:51:51;2.70;;;1.60;;
76693;SDS011;65625;52.136;5.424;2023-04-15T10:57:06;4.65;;;2.17;;
76693;SDS011;65625;52.136;5.424;2023-04-15T10:59:36;3.75;;;1.95;;
76693;SDS011;65625;52.136;5.424;2023-04-15T11:02:04;4.78;;;1.80;;
76693;SDS011;65625;52.136;5.424;2023-04-15T11:07:34;3.78;;;1.77;;
76693;SDS011;65625;52.136;5.424;2023-04-15T11:12:46;2.97;;;1.88;;
76693;SDS011;65625;52.136;5.424;2023-04-15T11:15:37;2.90;;;1.70;;
76693;SDS011;65625;52.136;5.424;2023-04-15T11:18:15;4.40;;;1.50;;
76693;SDS011;65625;52.136;5.424;2023-04-15T11:20:44;3.55;;;1.98;;
76693;SDS011;65625;52.136;5.424;2023-04-15T11:23:17;4.05;;;1.80;;
76693;SDS011;65625;52.136;5.424;2023-04-15T11:25:44;3.35;;;1.70;;
76693;SDS011;65625;52.136;5.424;2023-04-15T11:28:11;3.80;;;1.80;;
76693;SDS011;65625;52.136;5.424;2023-04-15T11:30:39;3.53;;;1.63;;
76693;SDS011;65625;52.136;5.424;2023-04-15T11:33:08;2.65;;;1.67;;
76693;SDS011;65625;52.136;5.424;2023-04-15T11:35:35;4.03;;;1.85;;
76693;SDS011;65625;52.136;5.424;2023-04-15T11:38:07;3.65;;;1.70;;
76693;SDS011;65625;52.136;5.424;2023-04-15T11:40:35;4.18;;;1.83;;
76693;SDS011;65625;52.136;5.424;2023-04-15T11:43:07;5.03;;;1.65;;
76693;SDS011;65625;52.136;5.424;2023-04-15T11:48:25;3.70;;;1.80;;
76693;SDS011;65625;52.136;5.424;2023-04-15T11:50:54;3.42;;;1.65;;
76693;SDS011;65625;52.136;5.424;2023-04-15T11:53:36;2.80;;;1.65;;
76693;SDS011;65625;52.136;5.424;2023-04-15T11:56:15;3.50;;;1.65;;
76693;SDS011;65625;52.136;5.424;2023-04-15T11:58:53;3.95;;;1.73;;
76693;SDS011;65625;52.136;5.424;2023-04-15T12:01:37;3.22;;;1.45;;
76693;SDS011;65625;52.136;5.424;2023-04-15T12:04:14;4.18;;;1.75;;
76693;SDS011;65625;52.136;5.424;2023-04-15T12:06:47;3.10;;;1.42;;
76693;SDS011;65625;52.136;5.424;2023-04-15T12:09:15;4.20;;;1.48;;
76693;SDS011;65625;52.136;5.424;2023-04-15T12:11:45;3.90;;;1.30;;
76693;SDS011;65625;52.136;5.424;2023-04-15T12:14:21;4.05;;;1.20;;
76693;SDS011;65625;52.136;5.424;2023-04-15T12:16:50;2.72;;;1.35;;
76693;SDS011;65625;52.136;5.424;2023-04-15T12:21:57;3.55;;;1.13;;
76693;SDS011;65625;52.136;5.424;2023-04-15T12:24:26;2.47;;;1.10;;
76693;SDS011;65625;52.136;5.424;2023-04-15T12:26:54;2.88;;;1.10;;
76693;SDS011;65625;52.136;5.424;2023-04-15T12:29:26;1.58;;;0.90;;
76693;SDS011;65625;52.136;5.424;2023-04-15T12:31:58;2.70;;;1.15;;
76693;SDS011;65625;52.136;5.424;2023-04-15T12:34:32;4.10;;;1.70;;
76693;SDS011;65625;52.136;5.424;2023-04-15T12:37:23;3.10;;;1.10;;
76693;SDS011;65625;52.136;5.424;2023-04-15T12:39:50;3.70;;;1.55;;
76693;SDS011;65625;52.136;5.424;2023-04-15T12:42:17;3.20;;;1.65;;
76693;SDS011;65625;52.136;5.424;2023-04-15T12:44:44;2.20;;;1.33;;
76693;SDS011;65625;52.136;5.424;2023-04-15T12:47:11;3.17;;;1.40;;
76693;SDS011;65625;52.136;5.424;2023-04-15T12:49:40;2.35;;;1.35;;
76693;SDS011;65625;52.136;5.424;2023-04-15T12:52:07;2.70;;;1.20;;
76693;SDS011;65625;52.136;5.424;2023-04-15T12:54:34;3.47;;;1.40;;
76693;SDS011;65625;52.136;5.424;2023-04-15T12:57:01;3.17;;;1.27;;
76693;SDS011;65625;52.136;5.424;2023-04-15T12:59:31;4.32;;;1.50;;
76693;SDS011;65625;52.136;5.424;2023-04-15T13:01:58;2.65;;;1.00;;
76693;SDS011;65625;52.136;5.424;2023-04-15T13:04:26;3.70;;;1.10;;
76693;SDS011;65625;52.136;5.424;2023-04-15T13:06:55;2.83;;;1.20;;
76693;SDS011;65625;52.136;5.424;2023-04-15T13:09:22;3.25;;;1.30;;
76693;SDS011;65625;52.136;5.424;2023-04-15T13:11:49;3.00;;;1.00;;
76693;SDS011;65625;52.136;5.424;2023-04-15T13:14:16;2.20;;;1.02;;
76693;SDS011;65625;52.136;5.424;2023-04-15T13:16:42;3.55;;;1.60;;
76693;SDS011;65625;52.136;5.424;2023-04-15T13:19:09;3.38;;;1.20;;
76693;SDS011;65625;52.136;5.424;2023-04-15T13:21:35;3.25;;;1.30;;
76693;SDS011;65625;52.136;5.424;2023-04-15T13:24:02;4.78;;;1.50;;
76693;SDS011;65625;52.136;5.424;2023-04-15T13:26:30;5.10;;;1.40;;
76693;SDS011;65625;52.136;5.424;2023-04-15T13:28:57;3.78;;;1.27;;
76693;SDS011;65625;52.136;5.424;2023-04-15T13:31:25;5.13;;;1.33;;
76693;SDS011;65625;52.136;5.424;2023-04-15T13:33:52;5.47;;;1.23;;
76693;SDS011;65625;52.136;5.424;2023-04-15T13:36:18;4.30;;;1.23;;
76693;SDS011;65625;52.136;5.424;2023-04-15T13:38:45;2.17;;;1.00;;
76693;SDS011;65625;52.136;5.424;2023-04-15T13:41:13;4.32;;;1.20;;
76693;SDS011;65625;52.136;5.424;2023-04-15T13:43:39;5.13;;;1.60;;
76693;SDS011;65625;52.136;5.424;2023-04-15T13:46:06;2.05;;;1.00;;
76693;SDS011;65625;52.136;5.424;2023-04-15T13:48:33;2.35;;;0.90;;
76693;SDS011;65625;52.136;5.424;2023-04-15T13:50:59;5.03;;;1.20;;
76693;SDS011;65625;52.136;5.424;2023-04-15T13:53:26;3.65;;;1.00;;
76693;SDS011;65625;52.136;5.424;2023-04-15T13:56:05;3.13;;;0.93;;
76693;SDS011;65625;52.136;5.424;2023-04-15T13:58:35;3.38;;;1.10;;
76693;SDS011;65625;52.136;5.424;2023-04-15T14:01:02;4.15;;;0.80;;
76693;SDS011;65625;52.136;5.424;2023-04-15T14:03:31;3.92;;;0.80;;
76693;SDS011;65625;52.136;5.424;2023-04-15T14:05:59;2.97;;;0.80;;
76693;SDS011;65625;52.136;5.424;2023-04-15T14:08:25;1.60;;;0.75;;
76693;SDS011;65625;52.136;5.424;2023-04-15T14:10:52;2.50;;;0.90;;
76693;SDS011;65625;52.136;5.424;2023-04-15T14:13:18;1.92;;;0.80;;
76693;SDS011;65625;52.136;5.424;2023-04-15T14:15:45;3.58;;;0.98;;
76693;SDS011;65625;52.136;5.424;2023-04-15T14:18:12;3.97;;;1.00;;
76693;SDS011;65625;52.136;5.424;2023-04-15T14:20:38;1.58;;;0.70;;
76693;SDS011;65625;52.136;5.424;2023-04-15T14:23:05;2.80;;;1.10;;
76693;SDS011;65625;52.136;5.424;2023-04-15T14:25:31;2.53;;;1.13;;
76693;SDS011;65625;52.136;5.424;2023-04-15T14:27:59;3.20;;;1.35;;
76693;SDS011;65625;52.136;5.424;2023-04-15T14:30:26;3.03;;;1.33;;
76693;SDS011;65625;52.136;5.424;2023-04-15T14:32:53;3.08;;;1.08;;
76693;SDS011;65625;52.136;5.424;2023-04-15T14:35:19;2.30;;;1.13;;
76693;SDS011;65625;52.136;5.424;2023-04-15T14:37:46;8.10;;;1.10;;
76693;SDS011;65625;52.136;5.424;2023-04-15T14:40:13;4.28;;;1.42;;
76693;SDS011;65625;52.136;5.424;2023-04-15T14:42:39;3.53;;;1.10;;
76693;SDS011;65625;52.136;5.424;2023-04-15T14:45:06;3.60;;;0.85;;
76693;SDS011;65625;52.136;5.424;2023-04-15T14:47:33;4.78;;;1.00;;
76693;SDS011;65625;52.136;5.424;2023-04-15T14:50:00;3.53;;;1.02;;
76693;SDS011;65625;52.136;5.424;2023-04-15T14:52:27;4.30;;;0.95;;
76693;SDS011;65625;52.136;5.424;2023-04-15T14:54:54;6.95;;;1.00;;
76693;SDS011;65625;52.136;5.424;2023-04-15T14:57:20;2.08;;;0.70;;
76693;SDS011;65625;52.136;5.424;2023-04-15T14:59:47;4.43;;;0.90;;
76693;SDS011;65625;52.136;5.424;2023-04-15T15:02:13;5.57;;;0.95;;
76693;SDS011;65625;52.136;5.424;2023-04-15T15:04:51;5.53;;;1.20;;
76693;SDS011;65625;52.136;5.424;2023-04-15T15:07:18;5.45;;;1.40;;
76693;SDS011;65625;52.136;5.424;2023-04-15T15:09:45;3.55;;;0.80;;
76693;SDS011;65625;52.136;5.424;2023-04-15T15:12:11;1.90;;;0.70;;